sensor_id;sensor_type;location;lat;lon;timestamp;pressure;altitude;pressure_sealevel;temperature;humidity
4167;BME280;2097;51.104;7.150;2022-11-23T00:01:29;97037.03;;;7.12;100.00
4167;BME280;2097;51.104;7.150;2022-11-23T00:04:00;97030.22;;;7.11;100.00
4167;BME280;2097;51.104;7.150;2022-11-23T00:06:28;96807.47;;;5.74;100.00
4167;BME280;2097;51.104;7.150;2022-11-23T00:08:54;97023.06;;;7.14;100.00
4167;BME280;2097;51.104;7.150;2022-11-23T00:11:22;97022.38;;;7.12;100.00
4167;BME280;2097;51.104;7.150;2022-11-23T00:13:49;96763.28;;;5.57;100.00
4167;BME280;2097;51.104;7.150;2022-11-23T00:16:18;97032.94;;;7.20;100.00
4167;BME280;2097;51.104;7.150;2022-11-23T00:18:45;96699.31;;;5.17;100.00
4167;BME280;2097;51.104;7.150;2022-11-23T00:21:14;96963.03;;;6.78;100.00
4167;BME280;2097;51.104;7.150;2022-11-23T00:23:42;97035.75;;;7.17;100.00
4167;BME280;2097;51.104;7.150;2022-11-23T00:26:09;97043.63;;;7.16;100.00
4167;BME280;2097;51.104;7.150;2022-11-23T00:28:36;97018.41;;;6.96;100.00
4167;BME280;2097;51.104;7.150;2022-11-23T00:31:05;97040.09;;;7.17;100.00
4167;BME280;2097;51.104;7.150;2022-11-23T00:33:32;96946.06;;;6.52;100.00
4167;BME280;2097;51.104;7.150;2022-11-23T00:35:59;97053.59;;;7.20;100.00
4167;BME280;2097;51.104;7.150;2022-11-23T00:38:27;96986.97;;;6.80;100.00
4167;BME280;2097;51.104;7.150;2022-11-23T00:40:58;97053.72;;;7.19;100.00
4167;BME280;2097;51.104;7.150;2022-11-23T00:43:25;97057.94;;;7.20;100.00
4167;BME280;2097;51.104;7.150;2022-11-23T00:46:01;97011.16;;;6.90;100.00
4167;BME280;2097;51.104;7.150;2022-11-23T00:48:28;97058.88;;;7.19;100.00
4167;BME280;2097;51.104;7.150;2022-11-23T00:50:55;97055.56;;;7.17;100.00
4167;BME280;2097;51.104;7.150;2022-11-23T00:53:22;97054.03;;;7.14;100.00
4167;BME280;2097;51.104;7.150;2022-11-23T00:55:51;97050.63;;;7.14;100.00
4167;BME280;2097;51.104;7.150;2022-11-23T00:58:18;96906.56;;;6.28;100.00
4167;BME280;2097;51.104;7.150;2022-11-23T01:00:45;96811.63;;;5.64;100.00
4167;BME280;2097;51.104;7.150;2022-11-23T01:03:11;96984.31;;;6.69;100.00
4167;BME280;2097;51.104;7.150;2022-11-23T01:05:38;97007.34;;;6.83;100.00
4167;BME280;2097;51.104;7.150;2022-11-23T01:08:05;97057.09;;;7.19;100.00
4167;BME280;2097;51.104;7.150;2022-11-23T01:10:32;97065.47;;;7.23;100.00
4167;BME280;2097;51.104;7.150;2022-11-23T01:13:00;97066.25;;;7.23;100.00
4167;BME280;2097;51.104;7.150;2022-11-23T01:15:27;97074.63;;;7.27;100.00
4167;BME280;2097;51.104;7.150;2022-11-23T01:17:53;97078.84;;;7.28;100.00
4167;BME280;2097;51.104;7.150;2022-11-23T01:20:20;96798.03;;;5.62;100.00
4167;BME280;2097;51.104;7.150;2022-11-23T01:22:47;97081.19;;;7.31;100.00
4167;BME280;2097;51.104;7.150;2022-11-23T01:25:13;96997.97;;;6.82;100.00
4167;BME280;2097;51.104;7.150;2022-11-23T01:27:40;96617.97;;;4.44;100.00
4167;BME280;2097;51.104;7.150;2022-11-23T01:30:10;97084.69;;;7.30;100.00
4167;BME280;2097;51.104;7.150;2022-11-23T01:32:37;96960.13;;;6.59;100.00
4167;BME280;2097;51.104;7.150;2022-11-23T01:35:04;97076.75;;;7.33;100.00
4167;BME280;2097;51.104;7.150;2022-11-23T01:37:30;97015.38;;;6.91;100.00
4167;BME280;2097;51.104;7.150;2022-11-23T01:39:57;97098.94;;;7.35;100.00
4167;BME280;2097;51.104;7.150;2022-11-23T01:42:38;97092.72;;;7.38;100.00
4167;BME280;2097;51.104;7.150;2022-11-23T01:45:28;97094.28;;;7.40;100.00
4167;BME280;2097;51.104;7.150;2022-11-23T01:47:57;97085.59;;;7.41;100.00
4167;BME280;2097;51.104;7.150;2022-11-23T01:50:24;97096.72;;;7.42;100.00
4167;BME280;2097;51.104;7.150;2022-11-23T01:52:51;97029.00;;;7.04;100.00
4167;BME280;2097;51.104;7.150;2022-11-23T01:55:18;97097.22;;;7.47;100.00
4167;BME280;2097;51.104;7.150;2022-11-23T01:57:46;97094.63;;;7.47;100.00
4167;BME280;2097;51.104;7.150;2022-11-23T02:00:13;97102.38;;;7.47;100.00
4167;BME280;2097;51.104;7.150;2022-11-23T02:02:56;97042.78;;;7.15;100.00
4167;BME280;2097;51.104;7.150;2022-11-23T02:05:28;96894.31;;;6.19;100.00
4167;BME280;2097;51.104;7.150;2022-11-23T02:07:58;97108.97;;;7.51;100.00
4167;BME280;2097;51.104;7.150;2022-11-23T02:10:26;96989.41;;;6.81;100.00
4167;BME280;2097;51.104;7.150;2022-11-23T02:12:53;97101.00;;;7.54;100.00
4167;BME280;2097;51.104;7.150;2022-11-23T02:15:20;97101.81;;;7.54;100.00
4167;BME280;2097;51.104;7.150;2022-11-23T02:17:48;97104.41;;;7.54;100.00
4167;BME280;2097;51.104;7.150;2022-11-23T02:20:16;97036.81;;;7.15;100.00
4167;BME280;2097;51.104;7.150;2022-11-23T02:22:51;97102.66;;;7.55;100.00
4167;BME280;2097;51.104;7.150;2022-11-23T02:25:25;97053.50;;;7.22;100.00
4167;BME280;2097;51.104;7.150;2022-11-23T02:27:56;97052.66;;;7.21;100.00
4167;BME280;2097;51.104;7.150;2022-11-23T02:30:23;97024.06;;;7.01;100.00
4167;BME280;2097;51.104;7.150;2022-11-23T02:32:49;97114.63;;;7.56;100.00
4167;BME280;2097;51.104;7.150;2022-11-23T02:35:16;96899.06;;;6.25;100.00
4167;BME280;2097;51.104;7.150;2022-11-23T02:37:43;97118.22;;;7.53;100.00
4167;BME280;2097;51.104;7.150;2022-11-23T02:40:15;97120.94;;;7.52;100.00
4167;BME280;2097;51.104;7.150;2022-11-23T02:42:47;96771.34;;;5.40;100.00
4167;BME280;2097;51.104;7.150;2022-11-23T02:45:23;97001.41;;;6.70;100.00
4167;BME280;2097;51.104;7.150;2022-11-23T02:47:53;97125.09;;;7.42;100.00
4167;BME280;2097;51.104;7.150;2022-11-23T02:50:20;96976.91;;;6.41;100.00
4167;BME280;2097;51.104;7.150;2022-11-23T02:52:46;96519.53;;;3.59;100.00
4167;BME280;2097;51.104;7.150;2022-11-23T02:55:13;97123.63;;;7.27;100.00
4167;BME280;2097;51.104;7.150;2022-11-23T02:57:40;97117.03;;;7.23;100.00
4167;BME280;2097;51.104;7.150;2022-11-23T03:00:08;97043.16;;;6.75;100.00
4167;BME280;2097;51.104;7.150;2022-11-23T03:02:36;96979.59;;;6.27;100.00
4167;BME280;2097;51.104;7.150;2022-11-23T03:05:03;97119.22;;;7.16;100.00
4167;BME280;2097;51.104;7.150;2022-11-23T03:07:30;97006.53;;;6.47;100.00
4167;BME280;2097;51.104;7.150;2022-11-23T03:09:58;96992.25;;;6.30;100.00
4167;BME280;2097;51.104;7.150;2022-11-23T03:12:25;97115.13;;;7.14;100.00
4167;BME280;2097;51.104;7.150;2022-11-23T03:14:51;97051.22;;;6.58;100.00
4167;BME280;2097;51.104;7.150;2022-11-23T03:17:18;97125.44;;;7.14;100.00
4167;BME280;2097;51.104;7.150;2022-11-23T03:19:46;96994.84;;;6.30;100.00
4167;BME280;2097;51.104;7.150;2022-11-23T03:22:13;96972.81;;;6.26;100.00
4167;BME280;2097;51.104;7.150;2022-11-23T03:24:40;97128.22;;;7.11;100.00
4167;BME280;2097;51.104;7.150;2022-11-23T03:27:07;97144.50;;;7.11;100.00
4167;BME280;2097;51.104;7.150;2022-11-23T03:29:33;97112.38;;;7.04;100.00
4167;BME280;2097;51.104;7.150;2022-11-23T03:32:00;96666.75;;;4.19;100.00
4167;BME280;2097;51.104;7.150;2022-11-23T03:34:27;97112.47;;;7.03;100.00
4167;BME280;2097;51.104;7.150;2022-11-23T03:36:55;97118.53;;;7.02;100.00
4167;BME280;2097;51.104;7.150;2022-11-23T03:39:22;97115.16;;;7.01;100.00
4167;BME280;2097;51.104;7.150;2022-11-23T03:41:48;96995.97;;;6.26;100.00
4167;BME280;2097;51.104;7.150;2022-11-23T03:44:15;97123.69;;;7.02;100.00
4167;BME280;2097;51.104;7.150;2022-11-23T03:46:42;97055.16;;;6.64;100.00
4167;BME280;2097;51.104;7.150;2022-11-23T03:49:08;97117.41;;;7.06;100.00
4167;BME280;2097;51.104;7.150;2022-11-23T03:51:35;96931.78;;;5.87;100.00
4167;BME280;2097;51.104;7.150;2022-11-23T03:54:03;97054.09;;;6.66;100.00
4167;BME280;2097;51.104;7.150;2022-11-23T03:56:30;97121.63;;;7.07;100.00
4167;BME280;2097;51.104;7.150;2022-11-23T03:58:57;97123.28;;;7.08;100.00
4167;BME280;2097;51.104;7.150;2022-11-23T04:01:23;96908.44;;;5.78;100.00
4167;BME280;2097;51.104;7.150;2022-11-23T04:03:50;97128.44;;;7.08;100.00
4167;BME280;2097;51.104;7.150;2022-11-23T04:06:17;97063.47;;;6.67;100.00
4167;BME280;2097;51.104;7.150;2022-11-23T04:08:43;97122.47;;;7.07;100.00
4167;BME280;2097;51.104;7.150;2022-11-23T04:11:11;97062.69;;;6.67;100.00
4167;BME280;2097;51.104;7.150;2022-11-23T04:13:38;97127.72;;;7.06;100.00
4167;BME280;2097;51.104;7.150;2022-11-23T04:16:05;96968.53;;;6.02;100.00
4167;BME280;2097;51.104;7.150;2022-11-23T04:18:32;97041.81;;;6.46;100.00
4167;BME280;2097;51.104;7.150;2022-11-23T04:20:59;97147.41;;;7.07;100.00
4167;BME280;2097;51.104;7.150;2022-11-23T04:23:25;96964.00;;;6.05;100.00
4167;BME280;2097;51.104;7.150;2022-11-23T04:25:52;96456.41;;;2.95;100.00
4167;BME280;2097;51.104;7.150;2022-11-23T04:28:20;97003.69;;;6.26;100.00
4167;BME280;2097;51.104;7.150;2022-11-23T04:30:47;97124.94;;;7.09;100.00
4167;BME280;2097;51.104;7.150;2022-11-23T04:33:13;97065.41;;;6.76;100.00
4167;BME280;2097;51.104;7.150;2022-11-23T04:35:40;97124.72;;;7.12;100.00
4167;BME280;2097;51.104;7.150;2022-11-23T04:38:07;97126.25;;;7.14;100.00
4167;BME280;2097;51.104;7.150;2022-11-23T04:40:33;97015.72;;;6.51;100.00
4167;BME280;2097;51.104;7.150;2022-11-23T04:43:00;97063.34;;;6.81;100.00
4167;BME280;2097;51.104;7.150;2022-11-23T04:45:28;97120.78;;;7.19;100.00
4167;BME280;2097;51.104;7.150;2022-11-23T04:47:55;97053.19;;;6.67;100.00
4167;BME280;2097;51.104;7.150;2022-11-23T04:50:21;97119.94;;;7.18;100.00
4167;BME280;2097;51.104;7.150;2022-11-23T04:52:48;97129.22;;;7.21;100.00
4167;BME280;2097;51.104;7.150;2022-11-23T04:55:15;96762.06;;;4.64;100.00
4167;BME280;2097;51.104;7.150;2022-11-23T04:57:41;97133.47;;;7.22;100.00
4167;BME280;2097;51.104;7.150;2022-11-23T05:00:09;96855.75;;;5.58;100.00
4167;BME280;2097;51.104;7.150;2022-11-23T05:02:37;96447.00;;;3.08;100.00
4167;BME280;2097;51.104;7.150;2022-11-23T05:05:05;96509.94;;;3.36;100.00
4167;BME280;2097;51.104;7.150;2022-11-23T05:07:31;96793.50;;;5.18;100.00
4167;BME280;2097;51.104;7.150;2022-11-23T05:09:58;97060.88;;;6.79;100.00
4167;BME280;2097;51.104;7.150;2022-11-23T05:12:24;97076.53;;;6.76;100.00
4167;BME280;2097;51.104;7.150;2022-11-23T05:14:51;97138.88;;;7.30;100.00
4167;BME280;2097;51.104;7.150;2022-11-23T05:17:18;96926.53;;;6.01;100.00
4167;BME280;2097;51.104;7.150;2022-11-23T05:19:46;97142.63;;;7.26;100.00
4167;BME280;2097;51.104;7.150;2022-11-23T05:22:17;97148.00;;;7.23;100.00
4167;BME280;2097;51.104;7.150;2022-11-23T05:24:44;97144.00;;;7.19;100.00
4167;BME280;2097;51.104;7.150;2022-11-23T05:27:11;97141.63;;;7.16;100.00
4167;BME280;2097;51.104;7.150;2022-11-23T05:29:38;97141.00;;;7.12;100.00
4167;BME280;2097;51.104;7.150;2022-11-23T05:32:04;97147.09;;;7.11;100.00
4167;BME280;2097;51.104;7.150;2022-11-23T05:34:31;97142.16;;;7.08;100.00
4167;BME280;2097;51.104;7.150;2022-11-23T05:36:59;96682.75;;;4.23;100.00
4167;BME280;2097;51.104;7.150;2022-11-23T05:39:26;96963.81;;;5.96;100.00
4167;BME280;2097;51.104;7.150;2022-11-23T05:41:52;97154.84;;;6.99;100.00
4167;BME280;2097;51.104;7.150;2022-11-23T05:44:19;96478.94;;;2.90;100.00
4167;BME280;2097;51.104;7.150;2022-11-23T05:46:46;97154.34;;;6.94;100.00
4167;BME280;2097;51.104;7.150;2022-11-23T05:49:13;97077.88;;;6.46;100.00
4167;BME280;2097;51.104;7.150;2022-11-23T05:51:39;97156.34;;;6.90;100.00
4167;BME280;2097;51.104;7.150;2022-11-23T05:54:07;96802.44;;;4.75;100.00
4167;BME280;2097;51.104;7.150;2022-11-23T05:56:34;97162.31;;;6.91;100.00
4167;BME280;2097;51.104;7.150;2022-11-23T05:59:01;96944.66;;;5.50;100.00
4167;BME280;2097;51.104;7.150;2022-11-23T06:01:27;97003.56;;;5.79;100.00
4167;BME280;2097;51.104;7.150;2022-11-23T06:03:54;97167.06;;;6.84;100.00
4167;BME280;2097;51.104;7.150;2022-11-23T06:06:21;97163.97;;;6.79;100.00
4167;BME280;2097;51.104;7.150;2022-11-23T06:08:47;97170.06;;;6.78;100.00
4167;BME280;2097;51.104;7.150;2022-11-23T06:11:16;96911.13;;;5.14;100.00
4167;BME280;2097;51.104;7.150;2022-11-23T06:13:45;97140.19;;;6.26;100.00
4167;BME280;2097;51.104;7.150;2022-11-23T06:16:12;97034.44;;;5.92;100.00
4167;BME280;2097;51.104;7.150;2022-11-23T06:18:38;97165.44;;;6.71;100.00
4167;BME280;2097;51.104;7.150;2022-11-23T06:21:05;97167.09;;;6.72;100.00
4167;BME280;2097;51.104;7.150;2022-11-23T06:23:32;97162.78;;;6.73;100.00
4167;BME280;2097;51.104;7.150;2022-11-23T06:25:59;97121.16;;;6.41;100.00
4167;BME280;2097;51.104;7.150;2022-11-23T06:28:27;97168.59;;;6.74;100.00
4167;BME280;2097;51.104;7.150;2022-11-23T06:30:54;97083.03;;;6.21;100.00
4167;BME280;2097;51.104;7.150;2022-11-23T06:33:21;97007.44;;;5.72;100.00
4167;BME280;2097;51.104;7.150;2022-11-23T06:35:51;97162.44;;;6.77;100.00
4167;BME280;2097;51.104;7.150;2022-11-23T06:38:18;97165.09;;;6.75;100.00
4167;BME280;2097;51.104;7.150;2022-11-23T06:40:45;97102.63;;;6.11;100.00
4167;BME280;2097;51.104;7.150;2022-11-23T06:43:12;96982.66;;;5.59;100.00
4167;BME280;2097;51.104;7.150;2022-11-23T06:45:40;97012.47;;;5.49;100.00
4167;BME280;2097;51.104;7.150;2022-11-23T06:48:07;97170.06;;;6.66;100.00
4167;BME280;2097;51.104;7.150;2022-11-23T06:50:34;96444.75;;;2.25;100.00
4167;BME280;2097;51.104;7.150;2022-11-23T06:53:00;97200.91;;;6.68;100.00
4167;BME280;2097;51.104;7.150;2022-11-23T06:55:27;97164.72;;;6.69;100.00
4167;BME280;2097;51.104;7.150;2022-11-23T06:57:55;97174.09;;;6.70;100.00
4167;BME280;2097;51.104;7.150;2022-11-23T07:00:22;96766.91;;;4.05;100.00
4167;BME280;2097;51.104;7.150;2022-11-23T07:02:54;96900.00;;;5.01;100.00
4167;BME280;2097;51.104;7.150;2022-11-23T07:05:22;96554.63;;;2.94;100.00
4167;BME280;2097;51.104;7.150;2022-11-23T07:07:48;96726.38;;;3.71;100.00
4167;BME280;2097;51.104;7.150;2022-11-23T07:10:16;97176.06;;;6.54;100.00
4167;BME280;2097;51.104;7.150;2022-11-23T07:12:43;97050.50;;;5.95;100.00
4167;BME280;2097;51.104;7.150;2022-11-23T07:15:10;97184.59;;;6.67;100.00
4167;BME280;2097;51.104;7.150;2022-11-23T07:17:38;97055.03;;;5.92;100.00
4167;BME280;2097;51.104;7.150;2022-11-23T07:20:08;97120.84;;;6.33;100.00
4167;BME280;2097;51.104;7.150;2022-11-23T07:22:35;97096.03;;;6.07;100.00
4167;BME280;2097;51.104;7.150;2022-11-23T07:25:02;97185.44;;;6.68;100.00
4167;BME280;2097;51.104;7.150;2022-11-23T07:27:29;97188.31;;;6.75;100.00
4167;BME280;2097;51.104;7.150;2022-11-23T07:29:56;97195.94;;;6.77;100.00
4167;BME280;2097;51.104;7.150;2022-11-23T07:32:23;97112.50;;;6.30;100.00
4167;BME280;2097;51.104;7.150;2022-11-23T07:34:49;96723.03;;;3.83;100.00
4167;BME280;2097;51.104;7.150;2022-11-23T07:37:17;97204.59;;;6.76;100.00
4167;BME280;2097;51.104;7.150;2022-11-23T07:39:44;97198.00;;;6.72;100.00
4167;BME280;2097;51.104;7.150;2022-11-23T07:42:11;97202.56;;;6.69;100.00
4167;BME280;2097;51.104;7.150;2022-11-23T07:44:38;97204.28;;;6.68;100.00
4167;BME280;2097;51.104;7.150;2022-11-23T07:47:04;97213.16;;;6.64;100.00
4167;BME280;2097;51.104;7.150;2022-11-23T07:49:31;97022.00;;;5.35;100.00
4167;BME280;2097;51.104;7.150;2022-11-23T07:51:58;97213.47;;;6.47;100.00
4167;BME280;2097;51.104;7.150;2022-11-23T07:54:26;97220.47;;;6.45;100.00
4167;BME280;2097;51.104;7.150;2022-11-23T07:56:52;97223.78;;;6.47;100.00
4167;BME280;2097;51.104;7.150;2022-11-23T07:59:19;97007.03;;;5.15;100.00
4167;BME280;2097;51.104;7.150;2022-11-23T08:01:46;97234.41;;;6.55;100.00
4167;BME280;2097;51.104;7.150;2022-11-23T08:04:12;97226.97;;;6.63;100.00
4167;BME280;2097;51.104;7.150;2022-11-23T08:06:40;96871.75;;;4.50;100.00
4167;BME280;2097;51.104;7.150;2022-11-23T08:09:07;97237.41;;;6.74;100.00
4167;BME280;2097;51.104;7.150;2022-11-23T08:11:35;97195.97;;;6.52;100.00
4167;BME280;2097;51.104;7.150;2022-11-23T08:14:02;96884.31;;;4.54;100.00
4167;BME280;2097;51.104;7.150;2022-11-23T08:16:28;97243.06;;;6.79;100.00
4167;BME280;2097;51.104;7.150;2022-11-23T08:18:56;97238.00;;;6.77;100.00
4167;BME280;2097;51.104;7.150;2022-11-23T08:21:22;97244.19;;;6.75;100.00
4167;BME280;2097;51.104;7.150;2022-11-23T08:23:49;97244.41;;;6.72;100.00
4167;BME280;2097;51.104;7.150;2022-11-23T08:26:16;97158.84;;;6.17;100.00
4167;BME280;2097;51.104;7.150;2022-11-23T08:28:44;97232.84;;;6.65;100.00
4167;BME280;2097;51.104;7.150;2022-11-23T08:31:11;97129.34;;;5.84;100.00
4167;BME280;2097;51.104;7.150;2022-11-23T08:33:39;97249.25;;;6.64;100.00
4167;BME280;2097;51.104;7.150;2022-11-23T08:36:07;97245.72;;;6.65;100.00
4167;BME280;2097;51.104;7.150;2022-11-23T08:38:34;97239.03;;;6.63;100.00
4167;BME280;2097;51.104;7.150;2022-11-23T08:41:02;97246.25;;;6.70;100.00
4167;BME280;2097;51.104;7.150;2022-11-23T08:43:30;97198.44;;;6.41;100.00
4167;BME280;2097;51.104;7.150;2022-11-23T08:45:58;97189.38;;;6.36;100.00
4167;BME280;2097;51.104;7.150;2022-11-23T08:48:25;97125.06;;;6.09;100.00
4167;BME280;2097;51.104;7.150;2022-11-23T08:50:52;97066.19;;;5.66;100.00
4167;BME280;2097;51.104;7.150;2022-11-23T08:53:19;97252.13;;;6.84;100.00
4167;BME280;2097;51.104;7.150;2022-11-23T08:56:02;97249.03;;;6.92;100.00
4167;BME280;2097;51.104;7.150;2022-11-23T08:58:29;97249.34;;;7.00;100.00
4167;BME280;2097;51.104;7.150;2022-11-23T09:00:57;97171.09;;;6.39;100.00
4167;BME280;2097;51.104;7.150;2022-11-23T09:03:24;97092.00;;;6.03;100.00
4167;BME280;2097;51.104;7.150;2022-11-23T09:05:50;96886.41;;;4.87;100.00
4167;BME280;2097;51.104;7.150;2022-11-23T09:08:18;97200.19;;;6.78;100.00
4167;BME280;2097;51.104;7.150;2022-11-23T09:10:45;97249.09;;;7.15;100.00
4167;BME280;2097;51.104;7.150;2022-11-23T09:13:12;97256.63;;;7.18;100.00
4167;BME280;2097;51.104;7.150;2022-11-23T09:15:39;97250.25;;;7.24;100.00
4167;BME280;2097;51.104;7.150;2022-11-23T09:18:07;97182.00;;;6.79;100.00
4167;BME280;2097;51.104;7.150;2022-11-23T09:20:34;97249.13;;;7.28;100.00
4167;BME280;2097;51.104;7.150;2022-11-23T09:23:01;97246.19;;;7.32;100.00
4167;BME280;2097;51.104;7.150;2022-11-23T09:25:27;97111.25;;;6.48;100.00
4167;BME280;2097;51.104;7.150;2022-11-23T09:27:56;97254.34;;;7.39;100.00
4167;BME280;2097;51.104;7.150;2022-11-23T09:30:24;97248.97;;;7.42;100.00
4167;BME280;2097;51.104;7.150;2022-11-23T09:32:50;97186.09;;;7.07;100.00
4167;BME280;2097;51.104;7.150;2022-11-23T09:35:18;97267.09;;;7.53;100.00
4167;BME280;2097;51.104;7.150;2022-11-23T09:37:45;97136.16;;;6.72;100.00
4167;BME280;2097;51.104;7.150;2022-11-23T09:40:13;97273.91;;;7.54;100.00
4167;BME280;2097;51.104;7.150;2022-11-23T09:42:52;97228.47;;;7.15;100.00
4167;BME280;2097;51.104;7.150;2022-11-23T09:45:26;96886.34;;;5.01;100.00
4167;BME280;2097;51.104;7.150;2022-11-23T09:48:17;97272.06;;;7.56;100.00
4167;BME280;2097;51.104;7.150;2022-11-23T09:50:49;97277.28;;;7.67;100.00
4167;BME280;2097;51.104;7.150;2022-11-23T09:53:21;96890.88;;;5.35;100.00
4167;BME280;2097;51.104;7.150;2022-11-23T09:55:51;97283.81;;;7.83;100.00
4167;BME280;2097;51.104;7.150;2022-11-23T09:58:22;97284.44;;;7.87;100.00
4167;BME280;2097;51.104;7.150;2022-11-23T10:00:58;97203.81;;;7.47;100.00
4167;BME280;2097;51.104;7.150;2022-11-23T10:03:26;97167.75;;;7.35;100.00
4167;BME280;2097;51.104;7.150;2022-11-23T10:06:01;96973.84;;;6.24;100.00
4167;BME280;2097;51.104;7.150;2022-11-23T10:08:35;97167.69;;;7.47;100.00
4167;BME280;2097;51.104;7.150;2022-11-23T10:11:26;97174.28;;;7.51;100.00
4167;BME280;2097;51.104;7.150;2022-11-23T10:14:07;96936.47;;;5.82;100.00
4167;BME280;2097;51.104;7.150;2022-11-23T10:16:47;97264.50;;;7.88;100.00
4167;BME280;2097;51.104;7.150;2022-11-23T10:19:27;97262.66;;;7.90;100.00
4167;BME280;2097;51.104;7.150;2022-11-23T10:22:04;97270.69;;;7.98;100.00
4167;BME280;2097;51.104;7.150;2022-11-23T10:24:38;97260.16;;;8.12;100.00
4167;BME280;2097;51.104;7.150;2022-11-23T10:27:13;97260.75;;;8.28;100.00
4167;BME280;2097;51.104;7.150;2022-11-23T10:29:42;97171.72;;;7.75;100.00
4167;BME280;2097;51.104;7.150;2022-11-23T10:32:26;97126.38;;;7.60;100.00
4167;BME280;2097;51.104;7.150;2022-11-23T10:34:59;97117.91;;;7.58;100.00
4167;BME280;2097;51.104;7.150;2022-11-23T10:37:29;97191.84;;;7.93;100.00
4167;BME280;2097;51.104;7.150;2022-11-23T10:39:57;96844.50;;;5.97;100.00
4167;BME280;2097;51.104;7.150;2022-11-23T10:42:29;97260.78;;;8.50;100.00
4167;BME280;2097;51.104;7.150;2022-11-23T10:44:58;97260.00;;;8.50;100.00
4167;BME280;2097;51.104;7.150;2022-11-23T10:47:36;97249.53;;;8.51;100.00
4167;BME280;2097;51.104;7.150;2022-11-23T10:50:19;97247.28;;;8.58;100.00
4167;BME280;2097;51.104;7.150;2022-11-23T10:52:52;97233.56;;;8.57;100.00
4167;BME280;2097;51.104;7.150;2022-11-23T10:55:24;97164.03;;;8.20;100.00
4167;BME280;2097;51.104;7.150;2022-11-23T10:57:52;97198.28;;;8.34;100.00
4167;BME280;2097;51.104;7.150;2022-11-23T11:00:21;97224.50;;;8.63;100.00
4167;BME280;2097;51.104;7.150;2022-11-23T11:02:49;97061.19;;;7.80;100.00
4167;BME280;2097;51.104;7.150;2022-11-23T11:05:25;97212.56;;;8.84;100.00
4167;BME280;2097;51.104;7.150;2022-11-23T11:07:54;97125.88;;;8.23;100.00
4167;BME280;2097;51.104;7.150;2022-11-23T11:10:37;97154.09;;;8.48;100.00
4167;BME280;2097;51.104;7.150;2022-11-23T11:13:20;97150.59;;;8.49;100.00
4167;BME280;2097;51.104;7.150;2022-11-23T11:15:51;96945.84;;;7.13;100.00
4167;BME280;2097;51.104;7.150;2022-11-23T11:18:18;97203.03;;;8.95;100.00
4167;BME280;2097;51.104;7.150;2022-11-23T11:20:45;96796.59;;;6.41;100.00
4167;BME280;2097;51.104;7.150;2022-11-23T11:23:18;97185.88;;;8.94;100.00
4167;BME280;2097;51.104;7.150;2022-11-23T11:25:46;97181.41;;;8.85;100.00
4167;BME280;2097;51.104;7.150;2022-11-23T11:28:23;97175.75;;;8.80;100.00
4167;BME280;2097;51.104;7.150;2022-11-23T11:30:58;97166.13;;;8.71;100.00
4167;BME280;2097;51.104;7.150;2022-11-23T11:33:32;97069.22;;;7.98;100.00
4167;BME280;2097;51.104;7.150;2022-11-23T11:36:02;97035.28;;;7.81;100.00
4167;BME280;2097;51.104;7.150;2022-11-23T11:38:34;97163.50;;;8.49;100.00
4167;BME280;2097;51.104;7.150;2022-11-23T11:41:06;97069.78;;;7.91;100.00
4167;BME280;2097;51.104;7.150;2022-11-23T11:43:36;97105.69;;;8.28;100.00
4167;BME280;2097;51.104;7.150;2022-11-23T11:46:12;97138.84;;;8.56;100.00
4167;BME280;2097;51.104;7.150;2022-11-23T11:48:43;97165.63;;;8.77;99.90
4167;BME280;2097;51.104;7.150;2022-11-23T11:51:12;97165.31;;;8.82;99.56
4167;BME280;2097;51.104;7.150;2022-11-23T11:53:50;96951.09;;;7.57;98.80
4167;BME280;2097;51.104;7.150;2022-11-23T11:56:24;97006.53;;;7.96;99.09
4167;BME280;2097;51.104;7.150;2022-11-23T11:58:56;97012.63;;;8.06;98.78
4167;BME280;2097;51.104;7.150;2022-11-23T12:01:31;97125.69;;;8.92;98.36
4167;BME280;2097;51.104;7.150;2022-11-23T12:04:04;96997.13;;;8.06;98.38
4167;BME280;2097;51.104;7.150;2022-11-23T12:06:36;96898.78;;;7.55;97.45
4167;BME280;2097;51.104;7.150;2022-11-23T12:09:11;97048.13;;;8.48;97.46
4167;BME280;2097;51.104;7.150;2022-11-23T12:11:40;96738.50;;;6.37;97.07
4167;BME280;2097;51.104;7.150;2022-11-23T12:14:10;97166.78;;;9.17;97.54
4167;BME280;2097;51.104;7.150;2022-11-23T12:16:44;97048.03;;;8.50;97.14
4167;BME280;2097;51.104;7.150;2022-11-23T12:19:16;97161.75;;;9.15;96.60
4167;BME280;2097;51.104;7.150;2022-11-23T12:22:16;97155.97;;;9.12;96.11
4167;BME280;2097;51.104;7.150;2022-11-23T12:25:05;96998.53;;;8.10;96.20
4167;BME280;2097;51.104;7.150;2022-11-23T12:27:40;97021.84;;;8.32;96.42
4167;BME280;2097;51.104;7.150;2022-11-23T12:30:16;97157.38;;;9.16;96.26
4167;BME280;2097;51.104;7.150;2022-11-23T12:33:07;97096.41;;;8.59;96.44
4167;BME280;2097;51.104;7.150;2022-11-23T12:36:05;97106.38;;;8.85;96.19
4167;BME280;2097;51.104;7.150;2022-11-23T12:38:38;96859.91;;;7.23;95.94
4167;BME280;2097;51.104;7.150;2022-11-23T12:41:31;97002.25;;;8.19;95.43
4167;BME280;2097;51.104;7.150;2022-11-23T12:46:58;97153.63;;;9.20;94.83
4167;BME280;2097;51.104;7.150;2022-11-23T12:49:32;97148.19;;;9.34;94.36
4167;BME280;2097;51.104;7.150;2022-11-23T12:52:14;96835.78;;;7.46;93.04
4167;BME280;2097;51.104;7.150;2022-11-23T12:54:53;96617.41;;;6.04;93.07
4167;BME280;2097;51.104;7.150;2022-11-23T12:57:27;97126.47;;;9.03;93.52
4167;BME280;2097;51.104;7.150;2022-11-23T13:00:02;97146.84;;;9.08;93.88
4167;BME280;2097;51.104;7.150;2022-11-23T13:02:58;97131.31;;;9.08;93.89
4167;BME280;2097;51.104;7.150;2022-11-23T13:05:57;97000.00;;;8.36;93.12
4167;BME280;2097;51.104;7.150;2022-11-23T13:08:45;97120.91;;;9.19;92.89
4167;BME280;2097;51.104;7.150;2022-11-23T13:11:24;97117.25;;;9.32;92.42
4167;BME280;2097;51.104;7.150;2022-11-23T13:14:07;96942.91;;;8.28;91.85
4167;BME280;2097;51.104;7.150;2022-11-23T13:16:49;97119.00;;;9.43;91.83
4167;BME280;2097;51.104;7.150;2022-11-23T13:19:33;97109.59;;;9.31;91.36
4167;BME280;2097;51.104;7.150;2022-11-23T13:22:08;97103.50;;;9.21;90.73
4167;BME280;2097;51.104;7.150;2022-11-23T13:24:37;96998.56;;;8.43;91.03
4167;BME280;2097;51.104;7.150;2022-11-23T13:27:39;97088.03;;;8.99;91.31
4167;BME280;2097;51.104;7.150;2022-11-23T13:30:22;96974.25;;;8.24;91.34
4167;BME280;2097;51.104;7.150;2022-11-23T13:33:26;97073.63;;;8.86;91.52
4167;BME280;2097;51.104;7.150;2022-11-23T13:35:56;97082.50;;;8.93;91.72
4167;BME280;2097;51.104;7.150;2022-11-23T13:38:36;96919.66;;;7.85;91.35
4167;BME280;2097;51.104;7.150;2022-11-23T13:44:23;96942.41;;;8.12;90.79